sensor_id;sensor_type;location;lat;lon;timestamp;P1;durP1;ratioP1;P2;durP2;ratioP2
59169;SDS011;52474;52.236;5.114;2023-04-22T00:02:06;18.83;;;9.10;;
59169;SDS011;52474;52.236;5.114;2023-04-22T00:04:33;22.02;;;10.07;;
59169;SDS011;52474;52.236;5.114;2023-04-22T00:06:59;19.60;;;10.40;;
59169;SDS011;52474;52.236;5.114;2023-04-22T00:09:25;21.90;;;10.63;;
59169;SDS011;52474;52.236;5.114;2023-04-22T00:11:51;23.98;;;11.63;;
59169;SDS011;52474;52.236;5.114;2023-04-22T00:14:17;25.92;;;13.60;;
59169;SDS011;52474;52.236;5.114;2023-04-22T00:16:43;25.05;;;12.40;;
59169;SDS011;52474;52.236;5.114;2023-04-22T00:19:08;24.05;;;12.73;;
59169;SDS011;52474;52.236;5.114;2023-04-22T00:21:34;26.77;;;13.32;;
59169;SDS011;52474;52.236;5.114;2023-04-22T00:24:00;25.67;;;13.60;;
59169;SDS011;52474;52.236;5.114;2023-04-22T00:26:27;27.50;;;13.43;;
59169;SDS011;52474;52.236;5.114;2023-04-22T00:28:53;26.05;;;13.65;;
59169;SDS011;52474;52.236;5.114;2023-04-22T00:31:18;25.88;;;13.07;;
59169;SDS011;52474;52.236;5.114;2023-04-22T00:33:44;28.25;;;14.23;;
59169;SDS011;52474;52.236;5.114;2023-04-22T00:36:10;26.92;;;14.07;;
59169;SDS011;52474;52.236;5.114;2023-04-22T00:38:36;23.73;;;12.73;;
59169;SDS011;52474;52.236;5.114;2023-04-22T00:41:01;28.50;;;13.75;;
59169;SDS011;52474;52.236;5.114;2023-04-22T00:43:27;28.70;;;13.68;;
59169;SDS011;52474;52.236;5.114;2023-04-22T00:45:53;25.63;;;14.95;;
59169;SDS011;52474;52.236;5.114;2023-04-22T00:48:18;29.08;;;14.85;;
59169;SDS011;52474;52.236;5.114;2023-04-22T00:50:45;27.65;;;14.02;;
59169;SDS011;52474;52.236;5.114;2023-04-22T00:53:10;30.33;;;15.25;;
59169;SDS011;52474;52.236;5.114;2023-04-22T00:55:36;33.53;;;14.27;;
59169;SDS011;52474;52.236;5.114;2023-04-22T00:58:02;29.55;;;14.30;;
59169;SDS011;52474;52.236;5.114;2023-04-22T01:00:28;30.80;;;14.45;;
59169;SDS011;52474;52.236;5.114;2023-04-22T01:02:54;31.98;;;14.27;;
59169;SDS011;52474;52.236;5.114;2023-04-22T01:05:20;26.88;;;13.85;;
59169;SDS011;52474;52.236;5.114;2023-04-22T01:07:47;32.35;;;14.05;;
59169;SDS011;52474;52.236;5.114;2023-04-22T01:10:13;26.15;;;13.60;;
59169;SDS011;52474;52.236;5.114;2023-04-22T01:12:39;25.42;;;12.52;;
59169;SDS011;52474;52.236;5.114;2023-04-22T01:15:05;32.20;;;13.88;;
59169;SDS011;52474;52.236;5.114;2023-04-22T01:17:31;28.50;;;13.95;;
59169;SDS011;52474;52.236;5.114;2023-04-22T01:19:58;30.27;;;14.27;;
59169;SDS011;52474;52.236;5.114;2023-04-22T01:22:27;31.02;;;14.45;;
59169;SDS011;52474;52.236;5.114;2023-04-22T01:24:59;34.70;;;15.55;;
59169;SDS011;52474;52.236;5.114;2023-04-22T01:27:26;29.98;;;14.18;;
59169;SDS011;52474;52.236;5.114;2023-04-22T01:29:52;31.67;;;16.63;;
59169;SDS011;52474;52.236;5.114;2023-04-22T01:32:18;32.35;;;15.35;;
59169;SDS011;52474;52.236;5.114;2023-04-22T01:34:44;30.55;;;15.90;;
59169;SDS011;52474;52.236;5.114;2023-04-22T01:37:11;32.00;;;16.42;;
59169;SDS011;52474;52.236;5.114;2023-04-22T01:39:37;30.02;;;14.95;;
59169;SDS011;52474;52.236;5.114;2023-04-22T01:42:03;30.45;;;15.85;;
59169;SDS011;52474;52.236;5.114;2023-04-22T01:44:29;38.33;;;15.63;;
59169;SDS011;52474;52.236;5.114;2023-04-22T01:46:55;28.48;;;13.93;;
59169;SDS011;52474;52.236;5.114;2023-04-22T01:49:21;30.45;;;14.90;;
59169;SDS011;52474;52.236;5.114;2023-04-22T01:51:49;32.47;;;14.88;;
59169;SDS011;52474;52.236;5.114;2023-04-22T01:54:14;35.15;;;15.35;;
59169;SDS011;52474;52.236;5.114;2023-04-22T01:56:41;36.08;;;15.18;;
59169;SDS011;52474;52.236;5.114;2023-04-22T01:59:08;35.00;;;14.88;;
59169;SDS011;52474;52.236;5.114;2023-04-22T02:01:35;40.60;;;15.60;;
59169;SDS011;52474;52.236;5.114;2023-04-22T02:04:01;33.92;;;15.57;;
59169;SDS011;52474;52.236;5.114;2023-04-22T02:06:27;47.03;;;14.55;;
59169;SDS011;52474;52.236;5.114;2023-04-22T02:08:53;37.22;;;13.77;;
59169;SDS011;52474;52.236;5.114;2023-04-22T02:11:19;28.75;;;13.35;;
59169;SDS011;52474;52.236;5.114;2023-04-22T02:13:45;28.25;;;12.07;;
59169;SDS011;52474;52.236;5.114;2023-04-22T02:16:12;26.10;;;12.00;;
59169;SDS011;52474;52.236;5.114;2023-04-22T02:18:38;32.95;;;14.75;;
59169;SDS011;52474;52.236;5.114;2023-04-22T02:21:06;32.25;;;14.20;;
59169;SDS011;52474;52.236;5.114;2023-04-22T02:23:32;57.90;;;15.85;;
59169;SDS011;52474;52.236;5.114;2023-04-22T02:25:58;41.35;;;16.02;;
59169;SDS011;52474;52.236;5.114;2023-04-22T02:28:24;36.97;;;13.95;;
59169;SDS011;52474;52.236;5.114;2023-04-22T02:30:50;39.70;;;14.50;;
59169;SDS011;52474;52.236;5.114;2023-04-22T02:33:15;34.75;;;14.15;;
59169;SDS011;52474;52.236;5.114;2023-04-22T02:35:41;37.50;;;15.35;;
59169;SDS011;52474;52.236;5.114;2023-04-22T02:38:06;39.55;;;15.60;;
59169;SDS011;52474;52.236;5.114;2023-04-22T02:40:32;43.95;;;16.42;;
59169;SDS011;52474;52.236;5.114;2023-04-22T02:42:59;36.88;;;15.30;;
59169;SDS011;52474;52.236;5.114;2023-04-22T02:45:27;38.22;;;15.18;;
59169;SDS011;52474;52.236;5.114;2023-04-22T02:47:54;39.10;;;14.48;;
59169;SDS011;52474;52.236;5.114;2023-04-22T02:50:20;37.92;;;15.85;;
59169;SDS011;52474;52.236;5.114;2023-04-22T02:52:46;38.72;;;15.23;;
59169;SDS011;52474;52.236;5.114;2023-04-22T02:55:11;33.33;;;15.27;;
59169;SDS011;52474;52.236;5.114;2023-04-22T02:57:37;38.78;;;15.15;;
59169;SDS011;52474;52.236;5.114;2023-04-22T03:00:03;37.78;;;16.80;;
59169;SDS011;52474;52.236;5.114;2023-04-22T03:02:30;42.97;;;17.77;;
59169;SDS011;52474;52.236;5.114;2023-04-22T03:05:04;48.10;;;17.25;;
59169;SDS011;52474;52.236;5.114;2023-04-22T03:07:30;38.67;;;15.63;;
59169;SDS011;52474;52.236;5.114;2023-04-22T03:09:56;36.05;;;15.45;;
59169;SDS011;52474;52.236;5.114;2023-04-22T03:12:23;40.05;;;16.20;;
59169;SDS011;52474;52.236;5.114;2023-04-22T03:14:49;35.08;;;15.68;;
59169;SDS011;52474;52.236;5.114;2023-04-22T03:17:15;29.95;;;12.93;;
59169;SDS011;52474;52.236;5.114;2023-04-22T03:19:41;29.20;;;13.35;;
59169;SDS011;52474;52.236;5.114;2023-04-22T03:22:07;28.33;;;11.77;;
59169;SDS011;52474;52.236;5.114;2023-04-22T03:24:33;27.55;;;11.40;;
59169;SDS011;52474;52.236;5.114;2023-04-22T03:27:03;30.80;;;10.80;;
59169;SDS011;52474;52.236;5.114;2023-04-22T03:29:28;29.23;;;10.60;;
59169;SDS011;52474;52.236;5.114;2023-04-22T03:31:54;21.40;;;9.45;;
59169;SDS011;52474;52.236;5.114;2023-04-22T03:34:20;26.55;;;10.73;;
59169;SDS011;52474;52.236;5.114;2023-04-22T03:36:46;30.25;;;9.73;;
59169;SDS011;52474;52.236;5.114;2023-04-22T03:39:12;21.90;;;10.35;;
59169;SDS011;52474;52.236;5.114;2023-04-22T03:41:39;23.15;;;10.80;;
59169;SDS011;52474;52.236;5.114;2023-04-22T03:44:05;23.75;;;10.70;;
59169;SDS011;52474;52.236;5.114;2023-04-22T03:46:33;25.02;;;12.15;;
59169;SDS011;52474;52.236;5.114;2023-04-22T03:49:09;31.42;;;13.25;;
59169;SDS011;52474;52.236;5.114;2023-04-22T03:51:35;31.92;;;14.35;;
59169;SDS011;52474;52.236;5.114;2023-04-22T03:54:05;40.47;;;15.13;;
59169;SDS011;52474;52.236;5.114;2023-04-22T03:56:34;27.48;;;11.70;;
59169;SDS011;52474;52.236;5.114;2023-04-22T03:59:01;24.77;;;10.38;;
59169;SDS011;52474;52.236;5.114;2023-04-22T04:01:26;22.70;;;10.68;;
59169;SDS011;52474;52.236;5.114;2023-04-22T04:03:56;21.40;;;10.68;;
59169;SDS011;52474;52.236;5.114;2023-04-22T04:06:27;26.45;;;12.77;;
59169;SDS011;52474;52.236;5.114;2023-04-22T04:08:53;28.08;;;12.52;;
59169;SDS011;52474;52.236;5.114;2023-04-22T04:11:19;27.92;;;12.90;;
59169;SDS011;52474;52.236;5.114;2023-04-22T04:13:46;27.05;;;13.77;;
59169;SDS011;52474;52.236;5.114;2023-04-22T04:16:22;28.08;;;13.40;;
59169;SDS011;52474;52.236;5.114;2023-04-22T04:18:54;27.75;;;12.82;;
59169;SDS011;52474;52.236;5.114;2023-04-22T04:21:21;36.03;;;14.40;;
59169;SDS011;52474;52.236;5.114;2023-04-22T04:23:50;36.72;;;14.88;;
59169;SDS011;52474;52.236;5.114;2023-04-22T04:26:19;40.10;;;15.18;;
59169;SDS011;52474;52.236;5.114;2023-04-22T04:28:52;48.15;;;17.67;;
59169;SDS011;52474;52.236;5.114;2023-04-22T04:31:18;38.90;;;14.98;;
59169;SDS011;52474;52.236;5.114;2023-04-22T04:33:44;38.58;;;14.60;;
59169;SDS011;52474;52.236;5.114;2023-04-22T04:36:11;34.13;;;14.50;;
59169;SDS011;52474;52.236;5.114;2023-04-22T04:38:38;36.70;;;15.77;;
59169;SDS011;52474;52.236;5.114;2023-04-22T04:41:04;35.10;;;15.30;;
59169;SDS011;52474;52.236;5.114;2023-04-22T04:43:31;40.67;;;15.90;;
59169;SDS011;52474;52.236;5.114;2023-04-22T04:46:07;39.45;;;16.08;;
59169;SDS011;52474;52.236;5.114;2023-04-22T04:48:35;42.42;;;16.45;;
59169;SDS011;52474;52.236;5.114;2023-04-22T04:53:36;48.60;;;16.65;;
59169;SDS011;52474;52.236;5.114;2023-04-22T04:56:02;49.03;;;18.45;;
59169;SDS011;52474;52.236;5.114;2023-04-22T04:58:28;51.10;;;19.02;;
59169;SDS011;52474;52.236;5.114;2023-04-22T05:01:26;49.08;;;19.08;;
59169;SDS011;52474;52.236;5.114;2023-04-22T05:03:56;46.93;;;19.33;;
59169;SDS011;52474;52.236;5.114;2023-04-22T05:06:21;44.63;;;19.15;;
59169;SDS011;52474;52.236;5.114;2023-04-22T05:08:56;46.80;;;19.58;;
59169;SDS011;52474;52.236;5.114;2023-04-22T05:11:22;55.10;;;20.05;;
59169;SDS011;52474;52.236;5.114;2023-04-22T05:13:50;48.55;;;17.95;;
59169;SDS011;52474;52.236;5.114;2023-04-22T05:16:22;48.33;;;19.08;;
59169;SDS011;52474;52.236;5.114;2023-04-22T05:18:48;53.47;;;19.48;;
59169;SDS011;52474;52.236;5.114;2023-04-22T05:21:16;52.03;;;19.13;;
59169;SDS011;52474;52.236;5.114;2023-04-22T05:23:43;51.28;;;18.65;;
59169;SDS011;52474;52.236;5.114;2023-04-22T05:26:09;51.17;;;19.08;;
59169;SDS011;52474;52.236;5.114;2023-04-22T05:28:39;46.33;;;17.20;;
59169;SDS011;52474;52.236;5.114;2023-04-22T05:31:04;53.13;;;19.30;;
59169;SDS011;52474;52.236;5.114;2023-04-22T05:33:31;46.47;;;18.35;;
59169;SDS011;52474;52.236;5.114;2023-04-22T05:35:57;46.60;;;18.92;;
59169;SDS011;52474;52.236;5.114;2023-04-22T05:38:23;51.60;;;19.73;;
59169;SDS011;52474;52.236;5.114;2023-04-22T05:40:50;48.65;;;19.98;;
59169;SDS011;52474;52.236;5.114;2023-04-22T05:43:16;51.95;;;19.80;;
59169;SDS011;52474;52.236;5.114;2023-04-22T05:45:47;57.10;;;21.38;;
59169;SDS011;52474;52.236;5.114;2023-04-22T05:48:14;55.35;;;21.35;;
59169;SDS011;52474;52.236;5.114;2023-04-22T05:50:49;56.97;;;22.30;;
59169;SDS011;52474;52.236;5.114;2023-04-22T05:53:16;61.17;;;23.27;;
59169;SDS011;52474;52.236;5.114;2023-04-22T05:55:42;54.40;;;23.25;;
59169;SDS011;52474;52.236;5.114;2023-04-22T05:58:11;63.20;;;23.10;;
59169;SDS011;52474;52.236;5.114;2023-04-22T06:00:47;57.10;;;22.95;;
59169;SDS011;52474;52.236;5.114;2023-04-22T06:03:33;56.70;;;22.67;;
59169;SDS011;52474;52.236;5.114;2023-04-22T06:06:00;56.58;;;22.73;;
59169;SDS011;52474;52.236;5.114;2023-04-22T06:08:26;56.85;;;23.02;;
59169;SDS011;52474;52.236;5.114;2023-04-22T06:10:52;59.45;;;23.98;;
59169;SDS011;52474;52.236;5.114;2023-04-22T06:13:19;55.10;;;23.35;;
59169;SDS011;52474;52.236;5.114;2023-04-22T06:15:44;65.45;;;23.88;;
59169;SDS011;52474;52.236;5.114;2023-04-22T06:18:10;63.20;;;24.60;;
59169;SDS011;52474;52.236;5.114;2023-04-22T06:20:36;62.75;;;25.10;;
59169;SDS011;52474;52.236;5.114;2023-04-22T06:23:02;63.10;;;25.83;;
59169;SDS011;52474;52.236;5.114;2023-04-22T06:25:30;62.20;;;24.88;;
59169;SDS011;52474;52.236;5.114;2023-04-22T06:27:59;67.93;;;26.13;;
59169;SDS011;52474;52.236;5.114;2023-04-22T06:30:31;60.20;;;25.20;;
59169;SDS011;52474;52.236;5.114;2023-04-22T06:32:56;64.88;;;25.80;;
59169;SDS011;52474;52.236;5.114;2023-04-22T06:35:23;65.95;;;26.98;;
59169;SDS011;52474;52.236;5.114;2023-04-22T06:37:49;76.13;;;28.02;;
59169;SDS011;52474;52.236;5.114;2023-04-22T06:40:16;79.63;;;29.35;;
59169;SDS011;52474;52.236;5.114;2023-04-22T06:43:01;65.95;;;27.08;;
59169;SDS011;52474;52.236;5.114;2023-04-22T06:45:45;71.45;;;27.45;;
59169;SDS011;52474;52.236;5.114;2023-04-22T06:48:27;60.17;;;26.80;;
59169;SDS011;52474;52.236;5.114;2023-04-22T06:51:11;69.60;;;27.13;;
59169;SDS011;52474;52.236;5.114;2023-04-22T06:53:37;74.18;;;29.83;;
59169;SDS011;52474;52.236;5.114;2023-04-22T06:56:03;78.22;;;29.77;;
59169;SDS011;52474;52.236;5.114;2023-04-22T06:58:30;69.15;;;28.77;;
59169;SDS011;52474;52.236;5.114;2023-04-22T07:00:55;72.50;;;29.80;;
59169;SDS011;52474;52.236;5.114;2023-04-22T07:03:21;69.53;;;28.88;;
59169;SDS011;52474;52.236;5.114;2023-04-22T07:05:58;65.32;;;28.25;;
59169;SDS011;52474;52.236;5.114;2023-04-22T07:08:24;69.72;;;30.23;;
59169;SDS011;52474;52.236;5.114;2023-04-22T07:10:49;60.47;;;29.05;;
59169;SDS011;52474;52.236;5.114;2023-04-22T07:13:44;57.85;;;27.08;;
59169;SDS011;52474;52.236;5.114;2023-04-22T07:16:10;54.88;;;27.27;;
59169;SDS011;52474;52.236;5.114;2023-04-22T07:18:36;54.47;;;27.05;;
59169;SDS011;52474;52.236;5.114;2023-04-22T07:21:02;48.70;;;26.05;;
59169;SDS011;52474;52.236;5.114;2023-04-22T07:23:28;39.75;;;22.85;;
59169;SDS011;52474;52.236;5.114;2023-04-22T07:25:54;40.15;;;22.15;;
59169;SDS011;52474;52.236;5.114;2023-04-22T07:28:20;40.92;;;23.52;;
59169;SDS011;52474;52.236;5.114;2023-04-22T07:30:45;38.60;;;21.55;;
59169;SDS011;52474;52.236;5.114;2023-04-22T07:33:11;35.47;;;21.38;;
59169;SDS011;52474;52.236;5.114;2023-04-22T07:35:37;37.55;;;22.17;;
59169;SDS011;52474;52.236;5.114;2023-04-22T07:38:02;34.25;;;20.58;;
59169;SDS011;52474;52.236;5.114;2023-04-22T07:40:28;31.88;;;19.02;;
59169;SDS011;52474;52.236;5.114;2023-04-22T07:42:54;173.07;;;33.08;;
59169;SDS011;52474;52.236;5.114;2023-04-22T07:45:19;41.92;;;23.40;;
59169;SDS011;52474;52.236;5.114;2023-04-22T07:47:45;31.85;;;20.58;;
59169;SDS011;52474;52.236;5.114;2023-04-22T07:50:11;28.17;;;17.95;;
59169;SDS011;52474;52.236;5.114;2023-04-22T07:52:36;27.65;;;17.48;;
59169;SDS011;52474;52.236;5.114;2023-04-22T07:55:02;25.23;;;16.83;;
59169;SDS011;52474;52.236;5.114;2023-04-22T07:57:28;21.35;;;14.70;;
59169;SDS011;52474;52.236;5.114;2023-04-22T07:59:54;23.40;;;15.57;;
59169;SDS011;52474;52.236;5.114;2023-04-22T08:02:20;22.83;;;14.98;;
59169;SDS011;52474;52.236;5.114;2023-04-22T08:04:47;21.27;;;14.85;;
59169;SDS011;52474;52.236;5.114;2023-04-22T08:07:13;23.35;;;14.88;;
59169;SDS011;52474;52.236;5.114;2023-04-22T08:09:39;23.08;;;15.15;;
59169;SDS011;52474;52.236;5.114;2023-04-22T08:12:05;21.77;;;14.70;;
59169;SDS011;52474;52.236;5.114;2023-04-22T08:14:31;20.35;;;14.18;;
59169;SDS011;52474;52.236;5.114;2023-04-22T08:16:56;24.27;;;14.77;;
59169;SDS011;52474;52.236;5.114;2023-04-22T08:19:22;87.07;;;19.45;;
59169;SDS011;52474;52.236;5.114;2023-04-22T08:21:48;241.32;;;26.75;;
59169;SDS011;52474;52.236;5.114;2023-04-22T08:24:13;284.90;;;32.28;;
59169;SDS011;52474;52.236;5.114;2023-04-22T08:26:39;18.92;;;13.90;;
59169;SDS011;52474;52.236;5.114;2023-04-22T08:29:05;32.00;;;15.55;;
59169;SDS011;52474;52.236;5.114;2023-04-22T08:31:32;38.17;;;16.20;;
59169;SDS011;52474;52.236;5.114;2023-04-22T08:33:58;25.63;;;14.68;;
59169;SDS011;52474;52.236;5.114;2023-04-22T08:36:24;67.40;;;15.98;;
59169;SDS011;52474;52.236;5.114;2023-04-22T08:38:52;18.08;;;13.43;;
59169;SDS011;52474;52.236;5.114;2023-04-22T08:41:20;16.70;;;12.82;;
59169;SDS011;52474;52.236;5.114;2023-04-22T08:43:47;14.77;;;12.23;;
59169;SDS011;52474;52.236;5.114;2023-04-22T08:46:13;13.55;;;11.95;;
59169;SDS011;52474;52.236;5.114;2023-04-22T08:48:44;16.65;;;12.93;;
59169;SDS011;52474;52.236;5.114;2023-04-22T08:51:11;17.08;;;12.98;;
59169;SDS011;52474;52.236;5.114;2023-04-22T08:53:40;13.98;;;10.73;;
59169;SDS011;52474;52.236;5.114;2023-04-22T08:56:07;12.65;;;10.27;;
59169;SDS011;52474;52.236;5.114;2023-04-22T08:58:33;13.43;;;11.13;;
59169;SDS011;52474;52.236;5.114;2023-04-22T09:01:00;12.07;;;10.10;;
59169;SDS011;52474;52.236;5.114;2023-04-22T09:03:27;12.07;;;9.82;;
59169;SDS011;52474;52.236;5.114;2023-04-22T09:05:53;11.13;;;8.80;;
59169;SDS011;52474;52.236;5.114;2023-04-22T09:08:19;10.80;;;8.98;;
59169;SDS011;52474;52.236;5.114;2023-04-22T09:10:46;12.43;;;9.48;;
59169;SDS011;52474;52.236;5.114;2023-04-22T09:13:12;11.93;;;9.77;;
59169;SDS011;52474;52.236;5.114;2023-04-22T09:15:38;11.10;;;9.82;;
59169;SDS011;52474;52.236;5.114;2023-04-22T09:18:04;11.20;;;9.85;;
59169;SDS011;52474;52.236;5.114;2023-04-22T09:20:30;10.63;;;9.45;;
59169;SDS011;52474;52.236;5.114;2023-04-22T09:22:56;10.38;;;9.25;;
59169;SDS011;52474;52.236;5.114;2023-04-22T09:25:28;9.20;;;7.95;;
59169;SDS011;52474;52.236;5.114;2023-04-22T09:27:54;10.80;;;9.25;;
59169;SDS011;52474;52.236;5.114;2023-04-22T09:30:34;9.82;;;8.82;;
59169;SDS011;52474;52.236;5.114;2023-04-22T09:33:05;11.25;;;9.30;;
59169;SDS011;52474;52.236;5.114;2023-04-22T09:35:36;10.75;;;9.65;;
59169;SDS011;52474;52.236;5.114;2023-04-22T09:38:04;11.35;;;9.75;;
59169;SDS011;52474;52.236;5.114;2023-04-22T09:40:34;11.75;;;10.02;;
59169;SDS011;52474;52.236;5.114;2023-04-22T09:43:03;11.82;;;10.50;;
59169;SDS011;52474;52.236;5.114;2023-04-22T09:45:32;12.10;;;10.03;;
59169;SDS011;52474;52.236;5.114;2023-04-22T09:48:08;10.38;;;9.20;;
59169;SDS011;52474;52.236;5.114;2023-04-22T09:50:39;9.88;;;8.63;;
59169;SDS011;52474;52.236;5.114;2023-04-22T09:53:08;11.82;;;9.35;;
59169;SDS011;52474;52.236;5.114;2023-04-22T09:55:37;10.38;;;9.27;;
59169;SDS011;52474;52.236;5.114;2023-04-22T09:58:11;10.68;;;9.57;;
59169;SDS011;52474;52.236;5.114;2023-04-22T10:00:39;11.80;;;10.10;;
59169;SDS011;52474;52.236;5.114;2023-04-22T10:03:07;10.07;;;8.95;;
59169;SDS011;52474;52.236;5.114;2023-04-22T10:05:34;11.57;;;9.15;;
59169;SDS011;52474;52.236;5.114;2023-04-22T10:08:07;9.77;;;8.77;;
59169;SDS011;52474;52.236;5.114;2023-04-22T10:10:34;10.93;;;9.25;;
59169;SDS011;52474;52.236;5.114;2023-04-22T10:13:01;10.90;;;9.82;;
59169;SDS011;52474;52.236;5.114;2023-04-22T10:15:52;10.75;;;9.65;;
59169;SDS011;52474;52.236;5.114;2023-04-22T10:18:20;12.05;;;9.52;;
59169;SDS011;52474;52.236;5.114;2023-04-22T10:20:48;11.10;;;9.90;;
59169;SDS011;52474;52.236;5.114;2023-04-22T10:23:19;10.95;;;9.80;;
59169;SDS011;52474;52.236;5.114;2023-04-22T10:25:47;10.85;;;9.75;;
59169;SDS011;52474;52.236;5.114;2023-04-22T10:28:18;11.35;;;10.15;;
59169;SDS011;52474;52.236;5.114;2023-04-22T10:30:45;11.73;;;10.13;;
59169;SDS011;52474;52.236;5.114;2023-04-22T10:38:34;11.30;;;9.95;;
59169;SDS011;52474;52.236;5.114;2023-04-22T10:41:01;12.30;;;9.73;;
59169;SDS011;52474;52.236;5.114;2023-04-22T10:46:07;12.80;;;10.13;;
59169;SDS011;52474;52.236;5.114;2023-04-22T10:49:08;12.82;;;10.98;;
59169;SDS011;52474;52.236;5.114;2023-04-22T10:51:38;13.13;;;11.05;;
59169;SDS011;52474;52.236;5.114;2023-04-22T10:54:05;11.10;;;9.50;;
59169;SDS011;52474;52.236;5.114;2023-04-22T10:56:31;17.98;;;11.23;;
59169;SDS011;52474;52.236;5.114;2023-04-22T10:58:57;14.10;;;11.00;;
59169;SDS011;52474;52.236;5.114;2023-04-22T11:01:26;16.95;;;10.82;;
59169;SDS011;52474;52.236;5.114;2023-04-22T11:06:19;14.38;;;11.38;;
59169;SDS011;52474;52.236;5.114;2023-04-22T11:09:05;14.25;;;11.00;;
59169;SDS011;52474;52.236;5.114;2023-04-22T11:11:33;12.73;;;10.60;;
59169;SDS011;52474;52.236;5.114;2023-04-22T11:13:59;13.30;;;11.35;;
59169;SDS011;52474;52.236;5.114;2023-04-22T11:16:25;13.63;;;11.00;;
59169;SDS011;52474;52.236;5.114;2023-04-22T11:18:51;13.98;;;11.15;;
59169;SDS011;52474;52.236;5.114;2023-04-22T11:21:17;13.98;;;10.65;;
59169;SDS011;52474;52.236;5.114;2023-04-22T11:23:51;19.65;;;14.18;;
59169;SDS011;52474;52.236;5.114;2023-04-22T11:26:17;14.93;;;11.40;;
59169;SDS011;52474;52.236;5.114;2023-04-22T11:28:46;12.82;;;10.63;;
59169;SDS011;52474;52.236;5.114;2023-04-22T11:31:12;14.80;;;11.43;;
59169;SDS011;52474;52.236;5.114;2023-04-22T11:33:39;14.32;;;11.50;;
59169;SDS011;52474;52.236;5.114;2023-04-22T11:36:09;16.45;;;11.77;;
59169;SDS011;52474;52.236;5.114;2023-04-22T11:38:36;16.75;;;12.40;;
59169;SDS011;52474;52.236;5.114;2023-04-22T11:41:02;16.77;;;12.10;;
59169;SDS011;52474;52.236;5.114;2023-04-22T11:43:29;13.98;;;11.10;;
59169;SDS011;52474;52.236;5.114;2023-04-22T11:45:55;15.55;;;11.77;;
59169;SDS011;52474;52.236;5.114;2023-04-22T11:48:21;15.77;;;11.70;;
59169;SDS011;52474;52.236;5.114;2023-04-22T11:50:47;15.85;;;12.45;;
59169;SDS011;52474;52.236;5.114;2023-04-22T11:53:14;18.13;;;13.43;;
59169;SDS011;52474;52.236;5.114;2023-04-22T11:55:40;23.92;;;15.27;;
59169;SDS011;52474;52.236;5.114;2023-04-22T11:58:12;20.73;;;14.55;;
59169;SDS011;52474;52.236;5.114;2023-04-22T12:00:43;25.17;;;15.35;;
59169;SDS011;52474;52.236;5.114;2023-04-22T12:05:53;21.10;;;14.52;;
59169;SDS011;52474;52.236;5.114;2023-04-22T12:08:31;23.60;;;16.50;;
59169;SDS011;52474;52.236;5.114;2023-04-22T12:10:57;25.35;;;16.42;;
59169;SDS011;52474;52.236;5.114;2023-04-22T12:16:08;29.90;;;18.45;;
59169;SDS011;52474;52.236;5.114;2023-04-22T12:18:39;28.55;;;18.02;;
59169;SDS011;52474;52.236;5.114;2023-04-22T12:21:13;26.83;;;16.73;;
59169;SDS011;52474;52.236;5.114;2023-04-22T12:23:42;31.50;;;18.27;;
59169;SDS011;52474;52.236;5.114;2023-04-22T12:26:12;26.77;;;16.58;;
59169;SDS011;52474;52.236;5.114;2023-04-22T12:28:39;28.88;;;17.35;;
59169;SDS011;52474;52.236;5.114;2023-04-22T12:31:06;26.52;;;16.67;;
59169;SDS011;52474;52.236;5.114;2023-04-22T12:33:32;27.85;;;16.92;;
59169;SDS011;52474;52.236;5.114;2023-04-22T12:35:58;27.38;;;17.63;;
59169;SDS011;52474;52.236;5.114;2023-04-22T12:38:24;30.33;;;18.70;;
59169;SDS011;52474;52.236;5.114;2023-04-22T12:40:51;27.90;;;17.80;;
59169;SDS011;52474;52.236;5.114;2023-04-22T12:43:16;30.33;;;18.23;;
59169;SDS011;52474;52.236;5.114;2023-04-22T12:45:42;29.98;;;17.85;;
59169;SDS011;52474;52.236;5.114;2023-04-22T12:48:08;27.95;;;17.27;;
59169;SDS011;52474;52.236;5.114;2023-04-22T12:50:37;28.25;;;17.77;;
59169;SDS011;52474;52.236;5.114;2023-04-22T12:53:03;30.02;;;18.17;;
59169;SDS011;52474;52.236;5.114;2023-04-22T12:55:29;30.58;;;18.15;;
59169;SDS011;52474;52.236;5.114;2023-04-22T12:57:54;29.45;;;17.60;;
59169;SDS011;52474;52.236;5.114;2023-04-22T13:00:21;27.48;;;16.45;;
59169;SDS011;52474;52.236;5.114;2023-04-22T13:02:47;30.50;;;18.08;;
59169;SDS011;52474;52.236;5.114;2023-04-22T13:05:14;27.88;;;17.05;;
59169;SDS011;52474;52.236;5.114;2023-04-22T13:07:41;28.23;;;16.80;;
59169;SDS011;52474;52.236;5.114;2023-04-22T13:10:07;30.02;;;17.65;;
59169;SDS011;52474;52.236;5.114;2023-04-22T13:12:37;30.02;;;17.77;;
59169;SDS011;52474;52.236;5.114;2023-04-22T13:15:04;31.00;;;18.67;;
59169;SDS011;52474;52.236;5.114;2023-04-22T13:17:32;28.63;;;17.63;;
59169;SDS011;52474;52.236;5.114;2023-04-22T13:19:58;31.73;;;18.00;;
59169;SDS011;52474;52.236;5.114;2023-04-22T13:22:24;30.63;;;18.45;;
59169;SDS011;52474;52.236;5.114;2023-04-22T13:24:50;32.33;;;18.73;;
59169;SDS011;52474;52.236;5.114;2023-04-22T13:27:15;34.55;;;19.20;;
59169;SDS011;52474;52.236;5.114;2023-04-22T13:29:41;35.75;;;19.65;;
59169;SDS011;52474;52.236;5.114;2023-04-22T13:32:07;37.08;;;21.13;;
59169;SDS011;52474;52.236;5.114;2023-04-22T13:34:33;33.40;;;19.42;;
59169;SDS011;52474;52.236;5.114;2023-04-22T13:36:59;37.17;;;21.85;;
59169;SDS011;52474;52.236;5.114;2023-04-22T13:39:25;38.50;;;20.92;;
59169;SDS011;52474;52.236;5.114;2023-04-22T13:41:51;39.70;;;21.35;;
59169;SDS011;52474;52.236;5.114;2023-04-22T13:44:18;45.22;;;21.67;;
59169;SDS011;52474;52.236;5.114;2023-04-22T13:46:44;38.40;;;20.75;;
59169;SDS011;52474;52.236;5.114;2023-04-22T13:49:10;39.38;;;21.80;;
59169;SDS011;52474;52.236;5.114;2023-04-22T13:51:36;43.65;;;22.80;;
59169;SDS011;52474;52.236;5.114;2023-04-22T13:54:08;45.47;;;22.90;;
59169;SDS011;52474;52.236;5.114;2023-04-22T13:56:33;43.63;;;24.83;;
59169;SDS011;52474;52.236;5.114;2023-04-22T13:58:59;45.13;;;24.33;;
59169;SDS011;52474;52.236;5.114;2023-04-22T14:01:28;45.75;;;24.25;;
59169;SDS011;52474;52.236;5.114;2023-04-22T14:03:54;43.03;;;23.55;;
59169;SDS011;52474;52.236;5.114;2023-04-22T14:06:20;48.05;;;24.75;;
59169;SDS011;52474;52.236;5.114;2023-04-22T14:08:46;46.63;;;25.05;;
59169;SDS011;52474;52.236;5.114;2023-04-22T14:11:12;40.85;;;22.73;;
59169;SDS011;52474;52.236;5.114;2023-04-22T14:13:38;47.03;;;24.98;;
59169;SDS011;52474;52.236;5.114;2023-04-22T14:16:07;43.92;;;25.05;;
59169;SDS011;52474;52.236;5.114;2023-04-22T14:18:36;47.67;;;24.23;;
59169;SDS011;52474;52.236;5.114;2023-04-22T14:21:06;44.90;;;23.33;;
59169;SDS011;52474;52.236;5.114;2023-04-22T14:23:36;42.55;;;22.73;;
59169;SDS011;52474;52.236;5.114;2023-04-22T14:26:04;41.22;;;22.08;;
59169;SDS011;52474;52.236;5.114;2023-04-22T14:28:30;43.85;;;23.52;;
59169;SDS011;52474;52.236;5.114;2023-04-22T14:30:57;44.97;;;24.38;;
59169;SDS011;52474;52.236;5.114;2023-04-22T14:33:26;50.87;;;26.03;;
59169;SDS011;52474;52.236;5.114;2023-04-22T14:35:52;44.25;;;22.75;;
59169;SDS011;52474;52.236;5.114;2023-04-22T14:38:18;43.50;;;22.80;;
59169;SDS011;52474;52.236;5.114;2023-04-22T14:40:46;48.08;;;24.85;;
59169;SDS011;52474;52.236;5.114;2023-04-22T14:43:12;47.45;;;23.25;;
59169;SDS011;52474;52.236;5.114;2023-04-22T14:45:39;45.03;;;23.33;;